logo
Search for airport 
image banner adimage banner adimage banner ad
image banner ad

LGVIKO - Ioannina/Vikos

Located in Zagori, Greece

ICAO - , IATA -

Data provided by Airmate  

General information

Coordinates: N39°52'49" E20°44'13"
Elevation is 3668 feet MSL.
Magnetic variation is 4° East
View others Airports in Ioannina

Operational data

Special qualification required
Current time UTC:
Current local time:
Weather at : LGIO - Ioannina/ King Pyrros ( 22 km )
METAR: LGIO 191620Z 00000KT 7000 RA FEW005 SCT012TCU BKN020 OVC080 08/08 Q1004
TAF: TAF LGIO 191400Z 1915/1924 VRB03KT 9999 FEW010 BKN025 BKN080 TEMPO 1915/1924 4000 RA SCT010 BKN025 OVC080 PROB40 TEMPO 1915/1922 2000 TSRA SCT008 FEW015CB BKN020 OVC070
View NOTAMs / SUP AIP / TFR affecting this airport [VIEW]
Communications frequencies: [VIEW]

Runways:

Airport contact information

Address: Zagori Greece

Satellite view of LGVIKO